^^
Station Historical Data
Daily Summary for January 4, 2017 Units:  Metric    English   Both
« Previous Day
Next Day »
Daily Weekly Monthly Yearly Custom
  High: Low: Average:
Temperature: -17.8 °C -28 °C -24.9 °C
Dew Point: -17.8 °C -29.4 °C -25.8 °C
Humidity: Humidity% 81% 87%
Wind Speed: 0km/h 0km/h 7.6km/h
Wind Gust: 0km/h - -
Wind- - East
Pressure: 0 hPa 33673.8 hPa -
Precipitation: 20.32 mm    
Historical Graphs
 
 
Tabular Data for January 4, 2017
Time Temperature Dew Point Pressure Wind Wind Speed Wind Gust Humidity Rainfall Rate (Hourly) solar Conditions
-17.8 °C -17.8 °C 0 hPa Calm     Humidity% 0 mm SoftwareType W/m2 Conditions
00:00 -24.3 °C -25.1 °C 33694.1 hPa Calm     90% 0 mm WeatherDisplay:10.37 W/m2 RA
00:05 -24.3 °C -25.1 °C 33694.1 hPa Calm     90% 0 mm WeatherDisplay:10.37 W/m2 RA
00:10 -24.3 °C -25 °C 33694.1 hPa Calm     90% 0 mm WeatherDisplay:10.37 W/m2 FEW
00:15 -24.2 °C -24.8 °C 33694.1 hPa Calm     91% 0 mm WeatherDisplay:10.37 W/m2 FEW
00:20 -24.1 °C -24.7 °C 33683.9 hPa Calm     91% 0 mm WeatherDisplay:10.37 W/m2 FEW
00:25 -23.9 °C -24.6 °C 33683.9 hPa Calm     91% 0 mm WeatherDisplay:10.37 W/m2 FEW
00:30 -23.7 °C -24.3 °C 33683.9 hPa Calm   2.6 km/h 92% 0 mm WeatherDisplay:10.37 W/m2 FEW
00:35 -23.3 °C -23.9 °C 33683.9 hPa Calm     92% 0 mm WeatherDisplay:10.37 W/m2 FEW
00:40 -23.1 °C -23.7 °C 33683.9 hPa Calm   3.1 km/h 92% 0 mm WeatherDisplay:10.37 W/m2 FEW
00:45 -22.8 °C -23.4 °C 33683.9 hPa Calm     92% 0 mm WeatherDisplay:10.37 W/m2 FEW
00:50 -22.5 °C -23.1 °C 33683.9 hPa Calm     92% 0 mm WeatherDisplay:10.37 W/m2 FEW
00:55 -22.4 °C -22.9 °C 33683.9 hPa Calm     92% 0 mm WeatherDisplay:10.37 W/m2 FEW
01:00 -22.3 °C -22.9 °C 33683.9 hPa Calm     92% 0 mm WeatherDisplay:10.37 W/m2 FEW
01:05 -22.1 °C -22.7 °C 33683.9 hPa East 1.3 km/h 6 km/h 92% 0 mm WeatherDisplay:10.37 W/m2 FEW
01:10 -21.9 °C -22.5 °C 33683.9 hPa Calm     92% 0 mm WeatherDisplay:10.37 W/m2 FEW
01:15 -21.8 °C -22.4 °C 33683.9 hPa Calm     92% 0 mm WeatherDisplay:10.37 W/m2 FEW
01:20 -21.7 °C -22.3 °C 33673.8 hPa Calm     93% 0 mm WeatherDisplay:10.37 W/m2 FEW
01:25 -21.6 °C -22.2 °C 33673.8 hPa Calm     92% 0 mm WeatherDisplay:10.37 W/m2 FEW
01:30 -21.4 °C -22.1 °C 33673.8 hPa Calm     92% 7.62 mm WeatherDisplay:10.37 W/m2 RA
01:35 -21.3 °C -22 °C 33673.8 hPa Calm     92% 7.62 mm WeatherDisplay:10.37 W/m2 RA
01:40 -21.3 °C -21.9 °C 33673.8 hPa Calm     92% 7.62 mm WeatherDisplay:10.37 W/m2 FEW
01:45 -21.2 °C -21.8 °C 33673.8 hPa Calm     92% 7.62 mm WeatherDisplay:10.37 W/m2 FEW
01:50 -21 °C -21.6 °C 33673.8 hPa Calm     92% 7.62 mm WeatherDisplay:10.37 W/m2 FEW
01:55 -20.9 °C -21.6 °C 33673.8 hPa ESE 4.3 km/h 9 km/h 92% 12.7 mm WeatherDisplay:10.37 W/m2 RA
02:00 -20.9 °C -21.5 °C 33673.8 hPa SE 2.3 km/h 6 km/h 92% 12.7 mm WeatherDisplay:10.37 W/m2 RA
02:05 -20.8 °C -21.4 °C 33673.8 hPa ENE 0.5 km/h 6 km/h 92% 12.7 mm WeatherDisplay:10.37 W/m2 FEW
02:10 -20.7 °C -21.3 °C 33673.8 hPa East 0.5 km/h 3.1 km/h 92% 12.7 mm WeatherDisplay:10.37 W/m2 FEW
02:15 -20.7 °C -21.3 °C 33683.9 hPa NE 3.7 km/h 6 km/h 92% 12.7 mm WeatherDisplay:10.37 W/m2 FEW
02:20 -20.7 °C -21.3 °C 33673.8 hPa ESE 0.3 km/h 3.1 km/h 92% 12.7 mm WeatherDisplay:10.37 W/m2 FEW
02:25 -20.7 °C -21.3 °C 33673.8 hPa Calm     92% 12.7 mm WeatherDisplay:10.37 W/m2 FEW
02:30 -20.7 °C -21.3 °C 33683.9 hPa East 4.7 km/h 9 km/h 92% 7.62 mm WeatherDisplay:10.37 W/m2 FEW
02:35 -20.7 °C -21.3 °C 33683.9 hPa East 2.3 km/h 9 km/h 92% 7.62 mm WeatherDisplay:10.37 W/m2 FEW
02:40 -20.8 °C -21.4 °C 33683.9 hPa SW 3.1 km/h 9 km/h 92% 7.62 mm WeatherDisplay:10.37 W/m2 FEW
02:45 -20.8 °C -21.4 °C 33683.9 hPa NNE 6.4 km/h 11.9 km/h 92% 7.62 mm WeatherDisplay:10.37 W/m2 FEW
02:50 -20.9 °C -21.6 °C 33683.9 hPa ENE 5.6 km/h 9 km/h 92% 7.62 mm WeatherDisplay:10.37 W/m2 FEW
02:55 -21.1 °C -21.7 °C 33683.9 hPa NE 6.4 km/h 17.9 km/h 92% 0 mm WeatherDisplay:10.37 W/m2 FEW
03:00 -21.2 °C -21.8 °C 33683.9 hPa NE 5 km/h 9 km/h 92% 0 mm WeatherDisplay:10.37 W/m2 FEW
03:05 -21.2 °C -21.8 °C 33683.9 hPa NE 6.8 km/h 11.9 km/h 92% 0 mm WeatherDisplay:10.37 W/m2 FEW
03:10 -21.3 °C -21.9 °C 33683.9 hPa ENE 4.7 km/h 11.9 km/h 92% 7.62 mm WeatherDisplay:10.37 W/m2 RA
03:15 -21.3 °C -21.9 °C 33683.9 hPa NE 9.7 km/h 15 km/h 92% 7.62 mm WeatherDisplay:10.37 W/m2 RA
03:20 -21.3 °C -22 °C 33683.9 hPa ESE 10.6 km/h 15 km/h 92% 7.62 mm WeatherDisplay:10.37 W/m2 FEW
03:25 -21.4 °C -22 °C 33683.9 hPa NE 9.3 km/h 23.8 km/h 92% 7.62 mm WeatherDisplay:10.37 W/m2 FEW
03:30 -21.4 °C -22.1 °C 33694.1 hPa NE 11.4 km/h 29.8 km/h 92% 7.62 mm WeatherDisplay:10.37 W/m2 FEW
03:35 -21.5 °C -22.1 °C 33694.1 hPa East 10.9 km/h 23.8 km/h 92% 7.62 mm WeatherDisplay:10.37 W/m2 FEW
03:40 -21.5 °C -22.1 °C 33694.1 hPa East 4.7 km/h 23.3 km/h 92% 7.62 mm WeatherDisplay:10.37 W/m2 FEW
03:45 -21.6 °C -22.1 °C 33694.1 hPa NE 9 km/h 15 km/h 92% 7.62 mm WeatherDisplay:10.37 W/m2 FEW
03:50 -21.6 °C -22.2 °C 33707.6 hPa ENE 6.8 km/h 15 km/h 92% 7.62 mm WeatherDisplay:10.37 W/m2 FEW
03:55 -21.6 °C -22.2 °C 33707.6 hPa ENE 10.6 km/h 20.9 km/h 92% 7.62 mm WeatherDisplay:10.37 W/m2 FEW
04:00 -21.7 °C -22.3 °C 33707.6 hPa NE 8.2 km/h 15 km/h 92% 7.62 mm WeatherDisplay:10.37 W/m2 FEW
04:05 -21.7 °C -22.4 °C 33707.6 hPa ENE 11.9 km/h 17.9 km/h 91% 7.62 mm WeatherDisplay:10.37 W/m2 FEW
04:10 -21.8 °C -22.3 °C 33707.6 hPa ENE 3.4 km/h 7.7 km/h 92% 0 mm WeatherDisplay:10.37 W/m2 FEW
04:15 -21.8 °C -22.4 °C 33707.6 hPa ENE 4.7 km/h 17.9 km/h 91% 7.62 mm WeatherDisplay:10.37 W/m2 RA
04:20 -21.8 °C -22.5 °C 33707.6 hPa NNE 11.6 km/h 20.9 km/h 91% 7.62 mm WeatherDisplay:10.37 W/m2 RA
04:25 -21.8 °C -22.5 °C 33707.6 hPa East 8.2 km/h 20.9 km/h 91% 7.62 mm WeatherDisplay:10.37 W/m2 FEW
04:30 -21.8 °C -22.6 °C 33707.6 hPa ENE 9.8 km/h 26.9 km/h 91% 7.62 mm WeatherDisplay:10.37 W/m2 FEW
04:35 -21.9 °C -22.6 °C 33717.8 hPa NE 16.3 km/h 25.9 km/h 91% 7.62 mm WeatherDisplay:10.37 W/m2 FEW
04:41 -21.9 °C -22.6 °C 33717.8 hPa NE 8 km/h 17.9 km/h 91% 7.62 mm WeatherDisplay:10.37 W/m2 FEW
04:46 -22.1 °C -22.7 °C 33717.8 hPa ENE 12.9 km/h 23.8 km/h 91% 7.62 mm WeatherDisplay:10.37 W/m2 FEW
04:51 -22.1 °C -22.8 °C 33717.8 hPa NE 6 km/h 11.9 km/h 91% 7.62 mm WeatherDisplay:10.37 W/m2 FEW
04:56 -22.2 °C -22.9 °C 33717.8 hPa NE 4.3 km/h 9 km/h 91% 7.62 mm WeatherDisplay:10.37 W/m2 FEW
05:01 -22.3 °C -23 °C 33731.3 hPa NE 10.9 km/h 11.9 km/h 91% 7.62 mm WeatherDisplay:10.37 W/m2 FEW
05:06 -22.4 °C -23.1 °C 33731.3 hPa East 9.8 km/h 20.9 km/h 91% 7.62 mm WeatherDisplay:10.37 W/m2 FEW
05:11 -22.5 °C -23.2 °C 33731.3 hPa East 12.4 km/h 29.8 km/h 91% 7.62 mm WeatherDisplay:10.37 W/m2 FEW
05:16 -22.6 °C -23.3 °C 33731.3 hPa NNE 11.1 km/h 23.8 km/h 90% 0 mm WeatherDisplay:10.37 W/m2 FEW
05:21 -22.6 °C -23.4 °C 33731.3 hPa NNE 11.4 km/h 26.9 km/h 90% 0 mm WeatherDisplay:10.37 W/m2 FEW
05:26 -22.7 °C -23.3 °C 33731.3 hPa NE 13.2 km/h 23.8 km/h 91% 0 mm WeatherDisplay:10.37 W/m2 FEW
05:31 -22.7 °C -23.4 °C 33741.5 hPa NE 13.2 km/h 29.8 km/h 90% 0 mm WeatherDisplay:10.37 W/m2 FEW
05:36 -22.7 °C -23.4 °C 33731.3 hPa NE 9.7 km/h 25.9 km/h 91% 0 mm WeatherDisplay:10.37 W/m2 FEW
05:41 -22.7 °C -23.4 °C 33741.5 hPa North 10.1 km/h 15 km/h 91% 0 mm WeatherDisplay:10.37 W/m2 FEW
05:46 -22.8 °C -23.4 °C 33741.5 hPa NW 11.4 km/h 20.9 km/h 91% 0 mm WeatherDisplay:10.37 W/m2 FEW
05:51 -22.8 °C -23.5 °C 33731.3 hPa North 8.5 km/h 20.9 km/h 91% 0 mm WeatherDisplay:10.37 W/m2 FEW
05:56 -22.9 °C -23.6 °C 33741.5 hPa NNE 11.6 km/h 25.9 km/h 91% 0 mm WeatherDisplay:10.37 W/m2 FEW
06:01 -22.9 °C -23.7 °C 33741.5 hPa East 12.9 km/h 17.9 km/h 90% 0 mm WeatherDisplay:10.37 W/m2 FEW
06:06 -22.9 °C -23.7 °C 33741.5 hPa NNE 2.1 km/h 10.3 km/h 90% 0 mm WeatherDisplay:10.37 W/m2 FEW
06:11 -22.9 °C -23.7 °C 33741.5 hPa NE 12.4 km/h 29.8 km/h 90% 0 mm WeatherDisplay:10.37 W/m2 FEW
06:16 -23 °C -23.8 °C 33751.6 hPa NE 13.2 km/h 26.9 km/h 90% 0 mm WeatherDisplay:10.37 W/m2 FEW
06:21 -23.1 °C -23.8 °C 33751.6 hPa ENE 10.9 km/h 15 km/h 90% 0 mm WeatherDisplay:10.37 W/m2 FEW
06:26 -23.1 °C -23.8 °C 33751.6 hPa NE 7.6 km/h 23.8 km/h 90% 0 mm WeatherDisplay:10.37 W/m2 FEW
06:31 -23.2 °C -23.9 °C 33751.6 hPa ENE 12.9 km/h 23.8 km/h 90% 0 mm WeatherDisplay:10.37 W/m2 FEW
06:36 -23.2 °C -23.9 °C 33751.6 hPa NE 14 km/h 29.8 km/h 90% 0 mm WeatherDisplay:10.37 W/m2 FEW
06:41 -23.3 °C -24.1 °C 33751.6 hPa NE 11.9 km/h 26.9 km/h 90% 0 mm WeatherDisplay:10.37 W/m2 FEW
06:46 -23.4 °C -24.2 °C 33765.2 hPa NE 9.8 km/h 15 km/h 89% 0 mm WeatherDisplay:10.37 W/m2 FEW
06:51 -23.4 °C -24.2 °C 33765.2 hPa NE 8.5 km/h 25.9 km/h 89% 0 mm WeatherDisplay:10.37 W/m2 FEW
06:56 -23.4 °C -24.2 °C 33765.2 hPa NE 7.7 km/h 15 km/h 90% 0 mm WeatherDisplay:10.37 W/m2 FEW
07:01 -23.4 °C -24.2 °C 33765.2 hPa ENE 5.5 km/h 20.9 km/h 90% 0 mm WeatherDisplay:10.37 W/m2 FEW
07:11 -23.5 °C -24.3 °C 33765.2 hPa NE 16.1 km/h 26.9 km/h 89% 0 mm WeatherDisplay:10.37 W/m2 FEW
07:16 -23.6 °C -24.3 °C 33775.4 hPa NE 11.9 km/h 17.9 km/h 89% 0 mm WeatherDisplay:10.37 W/m2 FEW
07:21 -23.6 °C -24.4 °C 33775.4 hPa NE 14.2 km/h 23.8 km/h 89% 0 mm WeatherDisplay:10.37 W/m2 FEW
07:26 -23.7 °C -24.4 °C 33775.4 hPa ENE 14.2 km/h 15 km/h 89% 0 mm WeatherDisplay:10.37 W/m2 FEW
07:31 -23.7 °C -24.5 °C 33775.4 hPa ENE 10.6 km/h 23.8 km/h 89% 0 mm WeatherDisplay:10.37 W/m2 FEW
07:36 -23.7 °C -24.6 °C 33775.4 hPa East 11.9 km/h 26.9 km/h 89% 0 mm WeatherDisplay:10.37 W/m2 FEW
07:41 -23.8 °C -24.6 °C 33775.4 hPa NE 14.8 km/h 29.8 km/h 89% 0 mm WeatherDisplay:10.37 W/m2 FEW
07:46 -23.8 °C -24.6 °C 33788.9 hPa ENE 5.5 km/h 18.2 km/h 89% 0 mm WeatherDisplay:10.37 W/m2 FEW
07:51 -23.9 °C -24.7 °C 33788.9 hPa NE 17.4 km/h 23.8 km/h 89% 0 mm WeatherDisplay:10.37 W/m2 FEW
07:56 -23.9 °C -24.7 °C 33788.9 hPa NE 8.9 km/h 26.9 km/h 89% 0 mm WeatherDisplay:10.37 W/m2 FEW
08:01 -23.9 °C -24.7 °C 33799.1 hPa ESE 13.5 km/h 29.8 km/h 89% 0 mm WeatherDisplay:10.37 W/m2 FEW
08:06 -23.9 °C -24.8 °C 33799.1 hPa NE 13.2 km/h 20.9 km/h 89% 0 mm WeatherDisplay:10.37 W/m2 FEW
08:11 -24 °C -24.8 °C 33799.1 hPa East 5.1 km/h 29.8 km/h 89% 0 mm WeatherDisplay:10.37 W/m2 FEW
08:16 -24.1 °C -24.9 °C 33799.1 hPa NW 18.3 km/h 18.3 km/h 88% 0 mm WeatherDisplay:10.37 W/m2 FEW
08:21 -24.1 °C -25 °C 33799.1 hPa NE 9.7 km/h 29.8 km/h 88% 0 mm WeatherDisplay:10.37 W/m2 FEW
08:26 -24.2 °C -25.1 °C 33799.1 hPa NNE 9.8 km/h 26.9 km/h 88% 0 mm WeatherDisplay:10.37 W/m2 FEW
08:31 -24.2 °C -25.1 °C 33809.2 hPa ENE 11.4 km/h 11.9 km/h 88% 0 mm WeatherDisplay:10.37 W/m2 FEW
08:36 -24.3 °C -25.2 °C 33809.2 hPa NNE 15.8 km/h 23.8 km/h 88% 0 mm WeatherDisplay:10.37 W/m2 FEW
08:41 -24.3 °C -25.2 °C 33822.8 hPa ENE 17.5 km/h 23.8 km/h 88% 0 mm WeatherDisplay:10.37 W/m2 FEW
08:42 -24.3 °C -25.2 °C 33822.8 hPa NE 17.1 km/h 29.8 km/h 88% 0 mm WeatherDisplay:10.37 W/m2 FEW
08:47 -24.4 °C -25.3 °C 33822.8 hPa NE 15.6 km/h 29.8 km/h 88% 0 mm WeatherDisplay:10.37 W/m2 FEW
08:52 -24.4 °C -25.3 °C 33822.8 hPa East 11.6 km/h 17.9 km/h 88% 0 mm WeatherDisplay:10.37 W/m2 FEW
08:57 -24.4 °C -25.2 °C 33822.8 hPa East 13.2 km/h 25.9 km/h 89% 0 mm WeatherDisplay:10.37 W/m2 FEW
09:02 -24.4 °C -25.2 °C 33832.9 hPa NE 14.2 km/h 29.8 km/h 89% 0 mm WeatherDisplay:10.37 W/m2 FEW
09:07 -24.3 °C -25.2 °C 33832.9 hPa ENE 14 km/h 23.8 km/h 89% 0 mm WeatherDisplay:10.37 W/m2 FEW
09:12 -24.3 °C -25.1 °C 33832.9 hPa NE 4.3 km/h 17.9 km/h 89% 0 mm WeatherDisplay:10.37 W/m2 FEW
09:17 -24.3 °C -25.1 °C 33832.9 hPa NNE 5.6 km/h 9 km/h 89% 0 mm WeatherDisplay:10.37 W/m2 FEW
09:22 -24.2 °C -25.1 °C 33843.1 hPa ENE 8.5 km/h 20.9 km/h 89% 0 mm WeatherDisplay:10.37 W/m2 FEW
09:27 -24.2 °C -24.9 °C 33843.1 hPa NE 10.1 km/h 23.8 km/h 89% 0 mm WeatherDisplay:10.37 W/m2 FEW
09:32 -24.1 °C -24.9 °C 33843.1 hPa NNE 13.7 km/h 23.8 km/h 89% 0 mm WeatherDisplay:10.37 W/m2 FEW
09:37 -24.1 °C -24.9 °C 33856.6 hPa ENE 7.6 km/h 23.8 km/h 89% 0 mm WeatherDisplay:10.37 W/m2 FEW
09:42 -24.1 °C -24.8 °C 33856.6 hPa NE 9.7 km/h 26.9 km/h 89% 0 mm WeatherDisplay:10.37 W/m2 FEW
09:47 -24 °C -24.8 °C 33856.6 hPa NE 6.3 km/h 23.8 km/h 89% 0 mm WeatherDisplay:10.37 W/m2 FEW
09:52 -24 °C -24.8 °C 33866.8 hPa ENE 10.9 km/h 20.8 km/h 89% 0 mm WeatherDisplay:10.37 W/m2 FEW
09:57 -24 °C -24.8 °C 33866.8 hPa NNE 11.6 km/h 29.8 km/h 89% 0 mm WeatherDisplay:10.37 W/m2 FEW
10:02 -23.9 °C -24.8 °C 33866.8 hPa East 6.3 km/h 11.9 km/h 89% 0 mm WeatherDisplay:10.37 W/m2 FEW
10:07 -23.9 °C -24.8 °C 33880.3 hPa ENE 13.7 km/h 29.8 km/h 89% 0 mm WeatherDisplay:10.37 W/m2 FEW
10:12 -23.9 °C -24.8 °C 33866.8 hPa NE 6.8 km/h 10.3 km/h 88% 0 mm WeatherDisplay:10.37 W/m2 FEW
10:17 -23.9 °C -24.7 °C 33880.3 hPa East 10.6 km/h 17.9 km/h 89% 0 mm WeatherDisplay:10.37 W/m2 FEW
10:22 -23.9 °C -24.7 °C 33866.8 hPa North 6.9 km/h 11.9 km/h 89% 0 mm WeatherDisplay:10.37 W/m2 FEW
10:27 -23.9 °C -24.7 °C 33880.3 hPa NE 9.7 km/h 15 km/h 89% 0 mm WeatherDisplay:10.37 W/m2 FEW
10:32 -23.9 °C -24.7 °C 33880.3 hPa NW 13.5 km/h 26.9 km/h 89% 0 mm WeatherDisplay:10.37 W/m2 FEW
10:37 -23.9 °C -24.7 °C 33880.3 hPa NE 10.9 km/h 29.8 km/h 89% 0 mm WeatherDisplay:10.37 W/m2 FEW
10:42 -23.9 °C -24.7 °C 33880.3 hPa NE 6 km/h 10.3 km/h 89% 0 mm WeatherDisplay:10.37 W/m2 FEW
10:47 -23.8 °C -24.7 °C 33890.5 hPa NE 6.8 km/h 12.9 km/h 89% 0 mm WeatherDisplay:10.37 W/m2 FEW
10:52 -23.8 °C -24.7 °C 33890.5 hPa NE 6.8 km/h 23.3 km/h 89% 0 mm WeatherDisplay:10.37 W/m2 FEW
10:57 -23.8 °C -24.7 °C 33890.5 hPa NNE 10.3 km/h 26.9 km/h 89% 0 mm WeatherDisplay:10.37 W/m2 FEW
11:02 -23.8 °C -24.7 °C 33890.5 hPa NE 10.3 km/h 20.9 km/h 89% 0 mm WeatherDisplay:10.37 W/m2 FEW
11:07 -23.9 °C -24.8 °C 33900.6 hPa NNE 7.2 km/h 9 km/h 88% 0 mm WeatherDisplay:10.37 W/m2 FEW
11:12 -23.9 °C -24.8 °C 33900.6 hPa NE 9 km/h 23.3 km/h 88% 0 mm WeatherDisplay:10.37 W/m2 FEW
11:17 -23.9 °C -24.8 °C 33900.6 hPa NNE 7.7 km/h 15.6 km/h 88% 0 mm WeatherDisplay:10.37 W/m2 FEW
11:22 -24 °C -24.9 °C 33900.6 hPa NNE 16.9 km/h 26.9 km/h 88% 0 mm WeatherDisplay:10.37 W/m2 FEW
11:27 -24 °C -24.9 °C 33914.2 hPa NE 11.6 km/h 15.6 km/h 88% 0 mm WeatherDisplay:10.37 W/m2 FEW
11:32 -24 °C -24.9 °C 33914.2 hPa NNW 11.6 km/h 29.8 km/h 88% 0 mm WeatherDisplay:10.37 W/m2 FEW
11:37 -24.1 °C -24.9 °C 33914.2 hPa NE 7.7 km/h 11.9 km/h 88% 0 mm WeatherDisplay:10.37 W/m2 FEW
11:42 -24.2 °C -25.2 °C 33914.2 hPa ENE 12.7 km/h 17.9 km/h 87% 0 mm WeatherDisplay:10.37 W/m2 FEW
11:47 -24.3 °C -25.3 °C 33924.3 hPa NE 10.3 km/h 20.9 km/h 87% 0 mm WeatherDisplay:10.37 W/m2 FEW
11:52 -24.4 °C -25.4 °C 33924.3 hPa NE 14 km/h 29.8 km/h 87% 0 mm WeatherDisplay:10.37 W/m2 FEW
11:57 -24.5 °C -25.4 °C 33924.3 hPa NNE 6.9 km/h 9 km/h 87% 0 mm WeatherDisplay:10.37 W/m2 FEW
12:02 -24.6 °C -25.5 °C 33924.3 hPa ENE 4.3 km/h 15.6 km/h 87% 0 mm WeatherDisplay:10.37 W/m2 FEW
12:07 -24.6 °C -25.6 °C 33937.9 hPa NE 12.2 km/h 20.9 km/h 87% 0 mm WeatherDisplay:10.37 W/m2 FEW
12:12 -24.7 °C -25.7 °C 33924.3 hPa ENE 14 km/h 26.9 km/h 87% 0 mm WeatherDisplay:10.37 W/m2 FEW
12:17 -24.8 °C -25.8 °C 33937.9 hPa East 10.3 km/h 25.9 km/h 87% 0 mm WeatherDisplay:10.37 W/m2 FEW
12:22 -24.9 °C -25.9 °C 33937.9 hPa NE 13.7 km/h 26.9 km/h 86% 0 mm WeatherDisplay:10.37 W/m2 FEW
12:27 -25.1 °C -26.1 °C 33937.9 hPa NE 11.6 km/h 23.8 km/h 86% 0 mm WeatherDisplay:10.37 W/m2 FEW
12:32 -25.1 °C -26.1 °C 33948 hPa NNW 15.8 km/h 29.8 km/h 86% 0 mm WeatherDisplay:10.37 W/m2 FEW
12:42 -25.2 °C -26.2 °C 33948 hPa NE 3.9 km/h 15.6 km/h 87% 0 mm WeatherDisplay:10.37 W/m2 FEW
12:47 -25.2 °C -26.2 °C 33958.2 hPa ESE 9 km/h 18.2 km/h 86% 0 mm WeatherDisplay:10.37 W/m2 FEW
12:52 -25.3 °C -26.3 °C 33958.2 hPa NE 8.9 km/h 17.9 km/h 86% 0 mm WeatherDisplay:10.37 W/m2 FEW
12:57 -25.3 °C -26.3 °C 33958.2 hPa NE 4.3 km/h 9 km/h 86% 0 mm WeatherDisplay:10.37 W/m2 FEW
13:02 -25.3 °C -26.3 °C 33958.2 hPa ENE 6 km/h 38.8 km/h 86% 0 mm WeatherDisplay:10.37 W/m2 FEW
13:07 -25.3 °C -26.3 °C 33958.2 hPa NNE 8 km/h 15 km/h 86% 0 mm WeatherDisplay:10.37 W/m2 FEW
13:12 -25.3 °C -26.3 °C 33971.7 hPa NNE 10.6 km/h 23.8 km/h 86% 0 mm WeatherDisplay:10.37 W/m2 FEW
13:17 -25.3 °C -26.3 °C 33971.7 hPa NNE 8.2 km/h 20.9 km/h 86% 0 mm WeatherDisplay:10.37 W/m2 FEW
13:22 -25.4 °C -26.4 °C 33981.9 hPa NNE 6 km/h 9 km/h 86% 0 mm WeatherDisplay:10.37 W/m2 FEW
13:27 -25.4 °C -26.6 °C 33981.9 hPa NE 11.6 km/h 29.8 km/h 85% 0 mm WeatherDisplay:10.37 W/m2 FEW
13:32 -25.4 °C -26.6 °C 33981.9 hPa NE 12.9 km/h 23.3 km/h 85% 0 mm WeatherDisplay:10.37 W/m2 FEW
13:37 -25.5 °C -26.6 °C 33992.1 hPa NE 7.7 km/h 9 km/h 85% 0 mm WeatherDisplay:10.37 W/m2 FEW
13:42 -25.6 °C -26.7 °C 33992.1 hPa NE 15 km/h 26.9 km/h 85% 0 mm WeatherDisplay:10.37 W/m2 FEW
13:47 -25.6 °C -26.7 °C 33992.1 hPa NE 9.3 km/h 17.9 km/h 85% 0 mm WeatherDisplay:10.37 W/m2 FEW
13:52 -25.6 °C -26.7 °C 33992.1 hPa NE 12.7 km/h 29.8 km/h 85% 0 mm WeatherDisplay:10.37 W/m2 FEW
13:57 -25.7 °C -26.7 °C 34005.6 hPa NE 13.2 km/h 29.8 km/h 85% 0 mm WeatherDisplay:10.37 W/m2 FEW
14:02 -25.7 °C -26.8 °C 34005.6 hPa ENE 11.4 km/h 20.9 km/h 85% 0 mm WeatherDisplay:10.37 W/m2 FEW
14:07 -25.7 °C -26.9 °C 34005.6 hPa NNW 5.5 km/h 17.9 km/h 84% 0 mm WeatherDisplay:10.37 W/m2 FEW
14:12 -25.7 °C -26.9 °C 34015.8 hPa North 17.9 km/h 29.8 km/h 84% 0 mm WeatherDisplay:10.37 W/m2 FEW
14:17 -25.8 °C -26.9 °C 34015.8 hPa NE 3.7 km/h 9 km/h 84% 0 mm WeatherDisplay:10.37 W/m2 FEW
14:22 -25.8 °C -27 °C 34015.8 hPa NE 10.1 km/h 26.9 km/h 84% 0 mm WeatherDisplay:10.37 W/m2 FEW
14:27 -25.8 °C -27 °C 34015.8 hPa ESE 1 km/h 9 km/h 84% 0 mm WeatherDisplay:10.37 W/m2 FEW
14:32 -25.9 °C -27.1 °C 34015.8 hPa NNW 2.1 km/h 6 km/h 84% 0 mm WeatherDisplay:10.37 W/m2 FEW
14:37 -25.9 °C -27.1 °C 34015.8 hPa WNW 5.6 km/h 11.9 km/h 84% 0 mm WeatherDisplay:10.37 W/m2 FEW
14:42 -25.9 °C -27.1 °C 34015.8 hPa NE 5.5 km/h 20.9 km/h 84% 0 mm WeatherDisplay:10.37 W/m2 FEW
14:47 -25.9 °C -27.1 °C 34029.3 hPa NE 8.5 km/h 23.8 km/h 85% 0 mm WeatherDisplay:10.37 W/m2 FEW
14:52 -26 °C -27.2 °C 34029.3 hPa NE 10.9 km/h 18.2 km/h 84% 0 mm WeatherDisplay:10.37 W/m2 FEW
14:57 -26.1 °C -27.2 °C 34029.3 hPa NE 8.5 km/h 17.9 km/h 84% 0 mm WeatherDisplay:10.37 W/m2 FEW
15:02 -26.1 °C -27.3 °C 34039.5 hPa NE 4.3 km/h 18.2 km/h 84% 0 mm WeatherDisplay:10.37 W/m2 FEW
15:07 -26.2 °C -27.3 °C 34039.5 hPa NE 6 km/h 15 km/h 84% 0 mm WeatherDisplay:10.37 W/m2 FEW
15:12 -26.2 °C -27.4 °C 34039.5 hPa East 7.7 km/h 15 km/h 84% 0 mm WeatherDisplay:10.37 W/m2 FEW
15:17 -26.2 °C -27.4 °C 34049.6 hPa NNW 6.8 km/h 12.9 km/h 84% 0 mm WeatherDisplay:10.37 W/m2 FEW
15:22 -26.3 °C -27.4 °C 34049.6 hPa NNE 2.1 km/h 9 km/h 84% 0 mm WeatherDisplay:10.37 W/m2 FEW
15:27 -26.3 °C -27.4 °C 34049.6 hPa NE 0.5 km/h 3.1 km/h 84% 0 mm WeatherDisplay:10.37 W/m2 FEW
15:32 -26.3 °C -27.6 °C 34063.2 hPa NW 8 km/h 11.9 km/h 84% 0 mm WeatherDisplay:10.37 W/m2 FEW
15:37 -26.4 °C -27.6 °C 34073.3 hPa NE 9.8 km/h 15 km/h 84% 0 mm WeatherDisplay:10.37 W/m2 FEW
15:42 -26.4 °C -27.6 °C 34073.3 hPa NNW 9 km/h 17.9 km/h 84% 0 mm WeatherDisplay:10.37 W/m2 FEW
15:47 -26.5 °C -27.7 °C 34086.9 hPa NE 9.8 km/h 23.3 km/h 84% 0 mm WeatherDisplay:10.37 W/m2 FEW
15:52 -26.6 °C -27.8 °C 34086.9 hPa ENE 6.8 km/h 11.9 km/h 83% 0 mm WeatherDisplay:10.37 W/m2 FEW
15:57 -26.6 °C -27.8 °C 34086.9 hPa North 8 km/h 15 km/h 83% 0 mm WeatherDisplay:10.37 W/m2 FEW
16:02 -26.7 °C -27.8 °C 34086.9 hPa NW 12.7 km/h 26.9 km/h 84% 0 mm WeatherDisplay:10.37 W/m2 FEW
16:07 -26.7 °C -27.9 °C 34086.9 hPa NE 5.6 km/h 9 km/h 83% 0 mm WeatherDisplay:10.37 W/m2 FEW
16:12 -26.8 °C -28 °C 34097 hPa NE 5.1 km/h 9 km/h 83% 0 mm WeatherDisplay:10.37 W/m2 FEW
16:17 -26.8 °C -28.1 °C 34097 hPa NE 8 km/h 15 km/h 83% 0 mm WeatherDisplay:10.37 W/m2 FEW
16:22 -26.9 °C -28.2 °C 34097 hPa NNW 3.9 km/h 9 km/h 83% 0 mm WeatherDisplay:10.37 W/m2 FEW
16:27 -27 °C -28.2 °C 34107.2 hPa NNE 10.9 km/h 18.2 km/h 83% 0 mm WeatherDisplay:10.37 W/m2 FEW
16:32 -27.1 °C -28.3 °C 34107.2 hPa NE 10.3 km/h 17.9 km/h 83% 0 mm WeatherDisplay:10.37 W/m2 FEW
16:37 -27.1 °C -28.3 °C 34120.7 hPa North 6.8 km/h 26.9 km/h 83% 0 mm WeatherDisplay:10.37 W/m2 FEW
16:42 -27.1 °C -28.4 °C 34120.7 hPa NNW 8 km/h 15 km/h 82% 0 mm WeatherDisplay:10.37 W/m2 FEW
16:47 -27.2 °C -28.4 °C 34120.7 hPa NE 4.2 km/h 9 km/h 82% 0 mm WeatherDisplay:10.37 W/m2 FEW
16:52 -27.2 °C -28.5 °C 34120.7 hPa NE 5.6 km/h 9 km/h 82% 0 mm WeatherDisplay:10.37 W/m2 FEW
16:57 -27.3 °C -28.5 °C 34130.9 hPa NE 10.3 km/h 23.8 km/h 83% 0 mm WeatherDisplay:10.37 W/m2 FEW
17:02 -27.3 °C -28.6 °C 34130.9 hPa NNW 10.3 km/h 23.8 km/h 82% 0 mm WeatherDisplay:10.37 W/m2 FEW
17:07 -27.3 °C -28.6 °C 34144.4 hPa NNE 6.3 km/h 15 km/h 83% 0 mm WeatherDisplay:10.37 W/m2 FEW
17:12 -27.4 °C -28.7 °C 34144.4 hPa NE 14.2 km/h 26.9 km/h 82% 0 mm WeatherDisplay:10.37 W/m2 FEW
17:17 -27.4 °C -28.7 °C 34144.4 hPa NE 7.2 km/h 11.9 km/h 82% 0 mm WeatherDisplay:10.37 W/m2 FEW
17:22 -27.4 °C -28.7 °C 34144.4 hPa North 14.5 km/h 29.8 km/h 82% 0 mm WeatherDisplay:10.37 W/m2 FEW
17:27 -27.4 °C -28.8 °C 34154.6 hPa ENE 7.2 km/h 20.9 km/h 82% 0 mm WeatherDisplay:10.37 W/m2 FEW
17:32 -27.6 °C -28.7 °C 34154.6 hPa NNE 11.4 km/h 20.9 km/h 83% 0 mm WeatherDisplay:10.37 W/m2 FEW
17:37 -27.6 °C -28.7 °C 34164.7 hPa West 9.3 km/h 26.9 km/h 83% 0 mm WeatherDisplay:10.37 W/m2 FEW
17:42 -27.6 °C -28.8 °C 34164.7 hPa NE 7.7 km/h 17.9 km/h 83% 0 mm WeatherDisplay:10.37 W/m2 FEW
17:47 -27.6 °C -28.8 °C 34164.7 hPa ENE 12.9 km/h 26.9 km/h 83% 0 mm WeatherDisplay:10.37 W/m2 FEW
17:52 -27.6 °C -28.8 °C 34178.3 hPa NE 2.6 km/h 9 km/h 83% 0 mm WeatherDisplay:10.37 W/m2 FEW
17:57 -27.7 °C -28.8 °C 34164.7 hPa North 9.8 km/h 26.9 km/h 83% 0 mm WeatherDisplay:10.37 W/m2 FEW
18:02 -27.7 °C -28.9 °C 34178.3 hPa NNW 2.6 km/h 9 km/h 83% 0 mm WeatherDisplay:10.37 W/m2 FEW
18:07 -27.7 °C -28.9 °C 34178.3 hPa NE 8.2 km/h 20.9 km/h 83% 0 mm WeatherDisplay:10.37 W/m2 FEW
18:12 -27.8 °C -29 °C 34178.3 hPa ENE 4.7 km/h 23.8 km/h 83% 0 mm WeatherDisplay:10.37 W/m2 FEW
18:17 -27.8 °C -29 °C 34188.4 hPa NNE 5.6 km/h 11.9 km/h 83% 0 mm WeatherDisplay:10.37 W/m2 FEW
18:22 -27.8 °C -29 °C 34188.4 hPa ENE 2.6 km/h 5.1 km/h 83% 0 mm WeatherDisplay:10.37 W/m2 FEW
18:27 -27.8 °C -29 °C 34188.4 hPa NE 4.2 km/h 9 km/h 83% 0 mm WeatherDisplay:10.37 W/m2 FEW
18:32 -27.9 °C -29.2 °C 34198.6 hPa NE 3.1 km/h 11.9 km/h 82% 0 mm WeatherDisplay:10.37 W/m2 FEW
18:37 -27.9 °C -29.2 °C 34198.6 hPa East 6.8 km/h 15.6 km/h 82% 0 mm WeatherDisplay:10.37 W/m2 FEW
18:42 -27.9 °C -29.2 °C 34198.6 hPa NE 6.3 km/h 15 km/h 82% 0 mm WeatherDisplay:10.37 W/m2 FEW
18:47 -27.9 °C -29.2 °C 34198.6 hPa NE 9.7 km/h 17.9 km/h 82% 0 mm WeatherDisplay:10.37 W/m2 FEW
18:52 -27.9 °C -29.2 °C 34198.6 hPa NNE 7.2 km/h 17.9 km/h 82% 0 mm WeatherDisplay:10.37 W/m2 FEW
18:57 -27.9 °C -29.2 °C 34212.1 hPa SSE 4.7 km/h 9 km/h 82% 0 mm WeatherDisplay:10.37 W/m2 FEW
19:02 -27.9 °C -29.2 °C 34212.1 hPa North 10.3 km/h 17.9 km/h 82% 0 mm WeatherDisplay:10.37 W/m2 FEW
19:07 -27.9 °C -29.3 °C 34212.1 hPa NNW 4.3 km/h 23.8 km/h 82% 0 mm WeatherDisplay:10.37 W/m2 FEW
19:12 -28 °C -29.3 °C 34212.1 hPa NE 5.5 km/h 20.9 km/h 81% 0 mm WeatherDisplay:10.37 W/m2 FEW
19:17 -28 °C -29.3 °C 34212.1 hPa North 1.3 km/h 9 km/h 82% 0 mm WeatherDisplay:10.37 W/m2 FEW
19:22 -28 °C -29.3 °C 34212.1 hPa North 5.1 km/h 9 km/h 81% 0 mm WeatherDisplay:10.37 W/m2 FEW
19:27 -28 °C -29.4 °C 34222.3 hPa NE 7.2 km/h 12.9 km/h 81% 0 mm WeatherDisplay:10.37 W/m2 FEW
19:32 -28 °C -29.3 °C 34222.3 hPa NE 6 km/h 9 km/h 81% 0 mm WeatherDisplay:10.37 W/m2 FEW
19:37 -28 °C -29.3 °C 34222.3 hPa NE 9.3 km/h 29.8 km/h 81% 0 mm WeatherDisplay:10.37 W/m2 FEW
19:42 -28 °C -29.3 °C 34235.8 hPa NE 7.2 km/h 25.9 km/h 81% 0 mm WeatherDisplay:10.37 W/m2 FEW
19:47 -28 °C -29.3 °C 34235.8 hPa ENE 8.9 km/h 15 km/h 81% 0 mm WeatherDisplay:10.37 W/m2 FEW
19:57 -28 °C -29.3 °C 34235.8 hPa NW 6.9 km/h 17.9 km/h 81% 0 mm WeatherDisplay:10.37 W/m2 FEW
20:02 -27.9 °C -29.3 °C 34235.8 hPa NE 8.2 km/h 17.9 km/h 82% 0 mm WeatherDisplay:10.37 W/m2 FEW
20:07 -27.9 °C -29.2 °C 34246 hPa East 5 km/h 9 km/h 82% 0 mm WeatherDisplay:10.37 W/m2 FEW
20:12 -27.9 °C -29.2 °C 34246 hPa NNE 1.8 km/h 7.7 km/h 82% 0 mm WeatherDisplay:10.37 W/m2 FEW
20:22 -27.8 °C -29 °C 34246 hPa NNE 3.9 km/h 9 km/h 83% 0 mm WeatherDisplay:10.37 W/m2 FEW
20:27 -27.8 °C -29 °C 34246 hPa NNW 10.1 km/h 17.9 km/h 83% 0 mm WeatherDisplay:10.37 W/m2 FEW
20:32 -27.8 °C -29.1 °C 34256.2 hPa NNE 2.3 km/h 9 km/h 83% 0 mm WeatherDisplay:10.37 W/m2 FEW
20:37 -27.8 °C -29.1 °C 34256.2 hPa NW 6.3 km/h 15 km/h 83% 0 mm WeatherDisplay:10.37 W/m2 FEW
20:42 -27.9 °C -29.1 °C 34256.2 hPa NE 3.9 km/h 9 km/h 83% 0 mm WeatherDisplay:10.37 W/m2 FEW
20:47 -27.8 °C -29.1 °C 34256.2 hPa NNW 6.8 km/h 9 km/h 83% 0 mm WeatherDisplay:10.37 W/m2 FEW
20:52 -27.8 °C -29.1 °C 34256.2 hPa NNE 2.6 km/h 9 km/h 83% 0 mm WeatherDisplay:10.37 W/m2 FEW
20:57 -27.8 °C -29.1 °C 34269.7 hPa NNE 4.7 km/h 11.9 km/h 83% 0 mm WeatherDisplay:10.37 W/m2 FEW
21:02 -27.9 °C -29.1 °C 34269.7 hPa NNW 3.4 km/h 20.9 km/h 83% 0 mm WeatherDisplay:10.37 W/m2 FEW
21:07 -27.8 °C -29.1 °C 34279.9 hPa NE 6.3 km/h 15 km/h 83% 0 mm WeatherDisplay:10.37 W/m2 FEW
21:12 -27.8 °C -29 °C 34279.9 hPa NNE 3.4 km/h 29.8 km/h 83% 0 mm WeatherDisplay:10.37 W/m2 FEW
21:17 -27.8 °C -29 °C 34279.9 hPa NE 9.7 km/h 20.9 km/h 83% 0 mm WeatherDisplay:10.37 W/m2 FEW
21:22 -27.8 °C -28.9 °C 34279.9 hPa NW 7.2 km/h 20.8 km/h 84% 0 mm WeatherDisplay:10.37 W/m2 FEW
21:27 -27.8 °C -28.9 °C 34293.4 hPa NNE 5 km/h 9 km/h 84% 0 mm WeatherDisplay:10.37 W/m2 FEW
21:32 -27.8 °C -28.9 °C 34293.4 hPa NNE 4.3 km/h 20.9 km/h 84% 0 mm WeatherDisplay:10.37 W/m2 FEW
21:37 -27.8 °C -28.9 °C 34303.6 hPa NNE 4.2 km/h 20.9 km/h 84% 0 mm WeatherDisplay:10.37 W/m2 FEW
21:42 -27.8 °C -28.9 °C 34303.6 hPa NE 1.8 km/h 3.1 km/h 84% 0 mm WeatherDisplay:10.37 W/m2 FEW
21:47 -27.8 °C -28.9 °C 34303.6 hPa NW 6 km/h 11.9 km/h 84% 0 mm WeatherDisplay:10.37 W/m2 FEW
21:52 -27.8 °C -28.9 °C 34303.6 hPa North 2.1 km/h 3.1 km/h 84% 0 mm WeatherDisplay:10.37 W/m2 FEW
21:57 -27.8 °C -28.9 °C 34313.7 hPa NE 8.5 km/h 9 km/h 84% 0 mm WeatherDisplay:10.37 W/m2 FEW
22:02 -27.8 °C -28.9 °C 34313.7 hPa NNW 1.6 km/h 9 km/h 84% 0 mm WeatherDisplay:10.37 W/m2 FEW
22:07 -27.8 °C -28.9 °C 34313.7 hPa NE 5.5 km/h 9 km/h 84% 0 mm WeatherDisplay:10.37 W/m2 FEW
22:12 -27.8 °C -28.9 °C 34327.3 hPa NW 2.6 km/h 26.9 km/h 84% 0 mm WeatherDisplay:10.37 W/m2 FEW
22:17 -27.8 °C -28.9 °C 34327.3 hPa NE 11.6 km/h 11.9 km/h 84% 0 mm WeatherDisplay:10.37 W/m2 FEW
22:22 -27.8 °C -28.8 °C 34327.3 hPa ENE 8.2 km/h 23.8 km/h 85% 0 mm WeatherDisplay:10.37 W/m2 FEW
22:27 -27.8 °C -28.8 °C 34327.3 hPa NNW 4.3 km/h 11.9 km/h 85% 0 mm WeatherDisplay:10.37 W/m2 FEW
22:37 -27.8 °C -28.8 °C 34337.4 hPa NNW 6 km/h 29.8 km/h 85% 0 mm WeatherDisplay:10.37 W/m2 FEW
22:42 -27.8 °C -28.8 °C 34337.4 hPa NNW 10.1 km/h 23.8 km/h 85% 0 mm WeatherDisplay:10.37 W/m2 FEW
22:47 -27.8 °C -28.8 °C 34337.4 hPa NE 10.3 km/h 20.9 km/h 85% 0 mm WeatherDisplay:10.37 W/m2 FEW
22:52 -27.8 °C -28.8 °C 34337.4 hPa NE 7.2 km/h 15 km/h 85% 0 mm WeatherDisplay:10.37 W/m2 FEW
22:57 -27.8 °C -28.8 °C 34347.6 hPa NW 7.7 km/h 11.9 km/h 85% 0 mm WeatherDisplay:10.37 W/m2 FEW
23:02 -27.8 °C -28.8 °C 34347.6 hPa NNW 7.7 km/h 20.9 km/h 85% 0 mm WeatherDisplay:10.37 W/m2 FEW
23:07 -27.8 °C -28.8 °C 34347.6 hPa North 6.8 km/h 29.8 km/h 85% 0 mm WeatherDisplay:10.37 W/m2 FEW
23:12 -27.7 °C -28.8 °C 34347.6 hPa NE 7.7 km/h 11.9 km/h 85% 0 mm WeatherDisplay:10.37 W/m2 FEW
23:17 -27.7 °C -28.8 °C 34361.1 hPa NE 5.6 km/h 9 km/h 85% 0 mm WeatherDisplay:10.37 W/m2 FEW
23:22 -27.7 °C -28.7 °C 34361.1 hPa NE 5.6 km/h 11.9 km/h 85% 0 mm WeatherDisplay:10.37 W/m2 FEW
23:27 -27.7 °C -28.7 °C 34361.1 hPa North 5.6 km/h 11.9 km/h 85% 0 mm WeatherDisplay:10.37 W/m2 FEW
23:32 -27.7 °C -28.7 °C 34361.1 hPa NNE 1.8 km/h 23.8 km/h 85% 0 mm WeatherDisplay:10.37 W/m2 FEW
23:37 -27.7 °C -28.7 °C 34361.1 hPa NNE 11.6 km/h 12.9 km/h 85% 0 mm WeatherDisplay:10.37 W/m2 FEW
23:42 -27.6 °C -28.7 °C 34361.1 hPa WNW 5.1 km/h 20.8 km/h 85% 0 mm WeatherDisplay:10.37 W/m2 FEW
23:47 -27.6 °C -28.7 °C 34371.3 hPa NE 4.7 km/h 9 km/h 84% 0 mm WeatherDisplay:10.37 W/m2 FEW
23:52 -27.6 °C -28.7 °C 34371.3 hPa NNW 4.3 km/h 15 km/h 84% 0 mm WeatherDisplay:10.37 W/m2 FEW
23:57 -27.6 °C -28.7 °C 34371.3 hPa NE 11.1 km/h 15 km/h 84% 0 mm WeatherDisplay:10.37 W/m2 FEW
Tuulensuunkaari, Veikkola, Suomi
Compliments of Weather Underground - 2.5 mb